Addison Township, Michigan
Current Conditions -  °F | °C
As of 11:34 PM on Friday 24 Oct 2014 (Local Time) from KD95 Reporting Station
Clear Clear  
Wind Chill: 45°   Ceiling: Unl
Heat Index: 45°   Visibility: 7mi
Dew Point: 44°   Wind: 0mph
Humidity: 95%   Direction: NA
Pressure: 29.95"   Gusts: NA
Location:  42.8434°N, 83.1398°W
Report Text: KD95 250334Z AUTO 00000KT 7SM CLR 07/06 A2995 RMK AO2 T00710064
Loading
Personal Weather Stations






























Interactive Weather Map
Tropical Storm Tracking
New forecast layout! Learn more

10-Day Weather Forecast

Advertisements
Track Severe Weather on mobile